sensor_id;sensor_type;location;lat;lon;timestamp;temperature;humidity
67147;DHT22;54061;52.036;5.558;2023-04-25T00:01:54;14.20;83.90
67147;DHT22;54061;52.036;5.558;2023-04-25T00:04:21;14.20;84.00
67147;DHT22;54061;52.036;5.558;2023-04-25T00:06:47;14.20;83.90
67147;DHT22;54061;52.036;5.558;2023-04-25T00:09:13;14.20;83.90
67147;DHT22;54061;52.036;5.558;2023-04-25T00:11:39;14.20;83.90
67147;DHT22;54061;52.036;5.558;2023-04-25T00:14:05;14.20;83.90
67147;DHT22;54061;52.036;5.558;2023-04-25T00:16:31;14.20;83.80
67147;DHT22;54061;52.036;5.558;2023-04-25T00:18:59;14.20;83.80
67147;DHT22;54061;52.036;5.558;2023-04-25T00:21:25;14.20;83.80
67147;DHT22;54061;52.036;5.558;2023-04-25T00:23:52;14.20;83.80
67147;DHT22;54061;52.036;5.558;2023-04-25T00:26:18;14.20;83.80
67147;DHT22;54061;52.036;5.558;2023-04-25T00:28:43;14.20;83.80
67147;DHT22;54061;52.036;5.558;2023-04-25T00:31:09;14.20;83.80
67147;DHT22;54061;52.036;5.558;2023-04-25T00:33:35;14.20;83.80
67147;DHT22;54061;52.036;5.558;2023-04-25T00:36:00;14.20;83.70
67147;DHT22;54061;52.036;5.558;2023-04-25T00:38:26;14.10;83.70
67147;DHT22;54061;52.036;5.558;2023-04-25T00:40:51;14.10;83.70
67147;DHT22;54061;52.036;5.558;2023-04-25T00:43:18;14.10;83.60
67147;DHT22;54061;52.036;5.558;2023-04-25T00:45:43;14.10;83.60
67147;DHT22;54061;52.036;5.558;2023-04-25T00:48:12;14.10;83.60
67147;DHT22;54061;52.036;5.558;2023-04-25T00:50:39;14.10;83.60
67147;DHT22;54061;52.036;5.558;2023-04-25T00:53:04;14.10;84.20
67147;DHT22;54061;52.036;5.558;2023-04-25T00:55:30;14.10;83.60
67147;DHT22;54061;52.036;5.558;2023-04-25T00:57:57;14.10;83.60
67147;DHT22;54061;52.036;5.558;2023-04-25T01:00:22;14.10;83.60
67147;DHT22;54061;52.036;5.558;2023-04-25T01:02:48;14.10;83.60
67147;DHT22;54061;52.036;5.558;2023-04-25T01:05:15;14.10;83.50
67147;DHT22;54061;52.036;5.558;2023-04-25T01:07:40;14.10;83.50
67147;DHT22;54061;52.036;5.558;2023-04-25T01:10:06;14.10;83.50
67147;DHT22;54061;52.036;5.558;2023-04-25T01:12:32;14.10;83.50
67147;DHT22;54061;52.036;5.558;2023-04-25T01:14:58;14.10;83.50
67147;DHT22;54061;52.036;5.558;2023-04-25T01:17:23;14.00;83.50
67147;DHT22;54061;52.036;5.558;2023-04-25T01:19:49;14.00;83.40
67147;DHT22;54061;52.036;5.558;2023-04-25T01:22:16;14.00;83.40
67147;DHT22;54061;52.036;5.558;2023-04-25T01:24:42;14.00;83.40
67147;DHT22;54061;52.036;5.558;2023-04-25T01:27:08;14.00;83.40
67147;DHT22;54061;52.036;5.558;2023-04-25T01:29:35;14.00;83.40
67147;DHT22;54061;52.036;5.558;2023-04-25T01:32:01;14.00;83.30
67147;DHT22;54061;52.036;5.558;2023-04-25T01:34:27;14.00;83.30
67147;DHT22;54061;52.036;5.558;2023-04-25T01:36:53;14.00;83.30
67147;DHT22;54061;52.036;5.558;2023-04-25T01:39:19;14.00;83.30
67147;DHT22;54061;52.036;5.558;2023-04-25T01:41:46;14.00;83.30
67147;DHT22;54061;52.036;5.558;2023-04-25T01:44:12;14.00;83.30
67147;DHT22;54061;52.036;5.558;2023-04-25T01:46:38;14.00;83.30
67147;DHT22;54061;52.036;5.558;2023-04-25T01:49:05;14.00;83.20
67147;DHT22;54061;52.036;5.558;2023-04-25T01:51:30;14.00;83.20
67147;DHT22;54061;52.036;5.558;2023-04-25T01:53:57;14.00;83.20
67147;DHT22;54061;52.036;5.558;2023-04-25T01:56:23;14.00;83.20
67147;DHT22;54061;52.036;5.558;2023-04-25T01:58:48;14.00;83.20
67147;DHT22;54061;52.036;5.558;2023-04-25T02:01:14;14.00;83.20
67147;DHT22;54061;52.036;5.558;2023-04-25T02:03:40;13.90;83.10
67147;DHT22;54061;52.036;5.558;2023-04-25T02:06:05;13.90;83.10
67147;DHT22;54061;52.036;5.558;2023-04-25T02:08:31;13.90;83.10
67147;DHT22;54061;52.036;5.558;2023-04-25T02:10:57;13.90;83.10
67147;DHT22;54061;52.036;5.558;2023-04-25T02:13:23;13.90;83.10
67147;DHT22;54061;52.036;5.558;2023-04-25T02:15:49;13.90;83.10
67147;DHT22;54061;52.036;5.558;2023-04-25T02:18:14;13.90;83.00
67147;DHT22;54061;52.036;5.558;2023-04-25T02:20:42;13.90;83.00
67147;DHT22;54061;52.036;5.558;2023-04-25T02:23:08;13.90;82.90
67147;DHT22;54061;52.036;5.558;2023-04-25T02:25:33;13.90;83.00
67147;DHT22;54061;52.036;5.558;2023-04-25T02:27:59;13.90;83.00
67147;DHT22;54061;52.036;5.558;2023-04-25T02:30:24;13.90;83.00
67147;DHT22;54061;52.036;5.558;2023-04-25T02:32:50;13.90;82.90
67147;DHT22;54061;52.036;5.558;2023-04-25T02:35:15;13.90;82.90
67147;DHT22;54061;52.036;5.558;2023-04-25T02:37:42;13.90;82.90
67147;DHT22;54061;52.036;5.558;2023-04-25T02:40:08;13.90;82.90
67147;DHT22;54061;52.036;5.558;2023-04-25T02:42:34;13.90;82.90
67147;DHT22;54061;52.036;5.558;2023-04-25T02:44:59;13.80;82.80
67147;DHT22;54061;52.036;5.558;2023-04-25T02:47:25;13.80;82.80
67147;DHT22;54061;52.036;5.558;2023-04-25T02:49:50;13.80;82.80
67147;DHT22;54061;52.036;5.558;2023-04-25T02:52:16;13.80;82.80
67147;DHT22;54061;52.036;5.558;2023-04-25T02:54:41;13.80;82.80
67147;DHT22;54061;52.036;5.558;2023-04-25T02:57:07;13.80;82.70
67147;DHT22;54061;52.036;5.558;2023-04-25T02:59:33;13.80;82.70
67147;DHT22;54061;52.036;5.558;2023-04-25T03:01:59;13.80;82.60
67147;DHT22;54061;52.036;5.558;2023-04-25T03:04:25;13.80;82.60
67147;DHT22;54061;52.036;5.558;2023-04-25T03:06:51;13.80;82.70
67147;DHT22;54061;52.036;5.558;2023-04-25T03:09:16;13.80;82.60
67147;DHT22;54061;52.036;5.558;2023-04-25T03:11:44;13.80;82.60
67147;DHT22;54061;52.036;5.558;2023-04-25T03:14:10;13.80;82.60
67147;DHT22;54061;52.036;5.558;2023-04-25T03:16:36;13.80;82.60
67147;DHT22;54061;52.036;5.558;2023-04-25T03:19:02;13.80;82.50
67147;DHT22;54061;52.036;5.558;2023-04-25T03:21:28;13.80;82.60
67147;DHT22;54061;52.036;5.558;2023-04-25T03:23:53;13.80;82.50
67147;DHT22;54061;52.036;5.558;2023-04-25T03:26:19;13.80;82.50
67147;DHT22;54061;52.036;5.558;2023-04-25T03:28:44;13.70;82.50
67147;DHT22;54061;52.036;5.558;2023-04-25T03:31:10;13.70;82.40
67147;DHT22;54061;52.036;5.558;2023-04-25T03:33:35;13.70;82.40
67147;DHT22;54061;52.036;5.558;2023-04-25T03:36:01;13.70;82.50
67147;DHT22;54061;52.036;5.558;2023-04-25T03:38:27;13.70;82.40
67147;DHT22;54061;52.036;5.558;2023-04-25T03:40:53;13.70;82.40
67147;DHT22;54061;52.036;5.558;2023-04-25T03:43:19;13.70;82.40
67147;DHT22;54061;52.036;5.558;2023-04-25T03:45:44;13.70;82.30
67147;DHT22;54061;52.036;5.558;2023-04-25T03:48:11;13.70;82.30
67147;DHT22;54061;52.036;5.558;2023-04-25T03:50:37;13.70;82.30
67147;DHT22;54061;52.036;5.558;2023-04-25T03:53:02;13.70;82.30
67147;DHT22;54061;52.036;5.558;2023-04-25T03:55:28;13.70;82.30
67147;DHT22;54061;52.036;5.558;2023-04-25T03:57:53;13.70;82.30
67147;DHT22;54061;52.036;5.558;2023-04-25T04:00:19;13.70;82.30
67147;DHT22;54061;52.036;5.558;2023-04-25T04:02:44;13.70;82.30
67147;DHT22;54061;52.036;5.558;2023-04-25T04:05:10;13.60;82.20
67147;DHT22;54061;52.036;5.558;2023-04-25T04:07:36;13.60;82.20
67147;DHT22;54061;52.036;5.558;2023-04-25T04:10:06;13.60;82.20
67147;DHT22;54061;52.036;5.558;2023-04-25T04:12:33;13.60;82.20
67147;DHT22;54061;52.036;5.558;2023-04-25T04:14:58;13.60;82.10
67147;DHT22;54061;52.036;5.558;2023-04-25T04:17:24;13.60;82.10
67147;DHT22;54061;52.036;5.558;2023-04-25T04:19:50;13.60;82.10
67147;DHT22;54061;52.036;5.558;2023-04-25T04:22:16;13.60;82.10
67147;DHT22;54061;52.036;5.558;2023-04-25T04:24:41;13.60;82.10
67147;DHT22;54061;52.036;5.558;2023-04-25T04:27:09;13.60;82.10
67147;DHT22;54061;52.036;5.558;2023-04-25T04:29:35;13.60;82.00
67147;DHT22;54061;52.036;5.558;2023-04-25T04:32:02;13.60;82.00
67147;DHT22;54061;52.036;5.558;2023-04-25T04:34:28;13.60;82.00
67147;DHT22;54061;52.036;5.558;2023-04-25T04:36:54;13.60;82.00
67147;DHT22;54061;52.036;5.558;2023-04-25T04:39:20;13.60;82.00
67147;DHT22;54061;52.036;5.558;2023-04-25T04:41:46;13.60;82.00
67147;DHT22;54061;52.036;5.558;2023-04-25T04:44:12;13.60;82.00
67147;DHT22;54061;52.036;5.558;2023-04-25T04:46:37;13.60;82.00
67147;DHT22;54061;52.036;5.558;2023-04-25T04:49:10;13.50;81.90
67147;DHT22;54061;52.036;5.558;2023-04-25T04:51:36;13.50;81.90
67147;DHT22;54061;52.036;5.558;2023-04-25T04:54:02;13.50;81.90
67147;DHT22;54061;52.036;5.558;2023-04-25T04:56:29;13.50;81.80
67147;DHT22;54061;52.036;5.558;2023-04-25T04:58:56;13.50;81.80
67147;DHT22;54061;52.036;5.558;2023-04-25T05:01:22;13.50;81.80
67147;DHT22;54061;52.036;5.558;2023-04-25T05:03:47;13.50;81.80
67147;DHT22;54061;52.036;5.558;2023-04-25T05:06:13;13.50;81.80
67147;DHT22;54061;52.036;5.558;2023-04-25T05:08:38;13.50;81.70
67147;DHT22;54061;52.036;5.558;2023-04-25T05:11:04;13.50;81.80
67147;DHT22;54061;52.036;5.558;2023-04-25T05:13:29;13.50;81.70
67147;DHT22;54061;52.036;5.558;2023-04-25T05:15:55;13.50;81.70
67147;DHT22;54061;52.036;5.558;2023-04-25T05:18:21;13.50;81.70
67147;DHT22;54061;52.036;5.558;2023-04-25T05:20:46;13.50;81.70
67147;DHT22;54061;52.036;5.558;2023-04-25T05:23:12;13.50;81.70
67147;DHT22;54061;52.036;5.558;2023-04-25T05:25:37;13.50;81.70
67147;DHT22;54061;52.036;5.558;2023-04-25T05:28:03;13.50;81.70
67147;DHT22;54061;52.036;5.558;2023-04-25T05:30:28;13.50;81.70
67147;DHT22;54061;52.036;5.558;2023-04-25T05:32:54;13.50;81.70
67147;DHT22;54061;52.036;5.558;2023-04-25T05:35:19;13.50;81.60
67147;DHT22;54061;52.036;5.558;2023-04-25T05:37:45;13.50;81.60
67147;DHT22;54061;52.036;5.558;2023-04-25T05:40:11;13.50;81.60
67147;DHT22;54061;52.036;5.558;2023-04-25T05:42:37;13.50;81.60
67147;DHT22;54061;52.036;5.558;2023-04-25T05:45:03;13.50;81.60
67147;DHT22;54061;52.036;5.558;2023-04-25T05:47:28;13.40;81.50
67147;DHT22;54061;52.036;5.558;2023-04-25T05:49:54;13.40;81.50
67147;DHT22;54061;52.036;5.558;2023-04-25T05:52:19;13.40;81.50
67147;DHT22;54061;52.036;5.558;2023-04-25T05:54:45;13.50;81.60
67147;DHT22;54061;52.036;5.558;2023-04-25T05:57:22;13.50;81.50
67147;DHT22;54061;52.036;5.558;2023-04-25T05:59:48;13.50;82.00
67147;DHT22;54061;52.036;5.558;2023-04-25T06:02:13;13.40;81.40
67147;DHT22;54061;52.036;5.558;2023-04-25T06:04:39;13.50;81.50
67147;DHT22;54061;52.036;5.558;2023-04-25T06:07:04;13.50;81.40
67147;DHT22;54061;52.036;5.558;2023-04-25T06:09:30;13.50;81.40
67147;DHT22;54061;52.036;5.558;2023-04-25T06:11:55;13.40;81.40
67147;DHT22;54061;52.036;5.558;2023-04-25T06:14:21;13.50;81.40
67147;DHT22;54061;52.036;5.558;2023-04-25T06:16:46;13.40;81.40
67147;DHT22;54061;52.036;5.558;2023-04-25T06:19:12;13.40;81.30
67147;DHT22;54061;52.036;5.558;2023-04-25T06:21:37;13.50;81.40
67147;DHT22;54061;52.036;5.558;2023-04-25T06:24:03;13.50;81.40
67147;DHT22;54061;52.036;5.558;2023-04-25T06:26:29;13.40;81.30
67147;DHT22;54061;52.036;5.558;2023-04-25T06:28:54;13.40;81.30
67147;DHT22;54061;52.036;5.558;2023-04-25T06:31:20;13.50;81.40
67147;DHT22;54061;52.036;5.558;2023-04-25T06:33:45;13.40;81.30
67147;DHT22;54061;52.036;5.558;2023-04-25T06:36:11;13.50;81.40
67147;DHT22;54061;52.036;5.558;2023-04-25T06:38:37;13.50;81.30
67147;DHT22;54061;52.036;5.558;2023-04-25T06:41:02;13.40;81.30
67147;DHT22;54061;52.036;5.558;2023-04-25T06:43:28;13.50;81.40
67147;DHT22;54061;52.036;5.558;2023-04-25T06:45:54;13.50;81.30
67147;DHT22;54061;52.036;5.558;2023-04-25T06:48:19;13.40;81.30
67147;DHT22;54061;52.036;5.558;2023-04-25T06:50:45;13.50;81.30
67147;DHT22;54061;52.036;5.558;2023-04-25T06:53:10;13.40;81.20
67147;DHT22;54061;52.036;5.558;2023-04-25T06:55:36;13.50;81.30
67147;DHT22;54061;52.036;5.558;2023-04-25T06:58:02;13.50;81.30
67147;DHT22;54061;52.036;5.558;2023-04-25T07:00:28;13.50;81.20
67147;DHT22;54061;52.036;5.558;2023-04-25T07:02:54;13.50;81.30
67147;DHT22;54061;52.036;5.558;2023-04-25T07:05:19;13.50;81.20
67147;DHT22;54061;52.036;5.558;2023-04-25T07:07:46;13.50;81.20
67147;DHT22;54061;52.036;5.558;2023-04-25T07:10:11;13.50;81.20
67147;DHT22;54061;52.036;5.558;2023-04-25T07:12:37;13.50;81.20
67147;DHT22;54061;52.036;5.558;2023-04-25T07:15:02;13.50;81.20
67147;DHT22;54061;52.036;5.558;2023-04-25T07:17:31;13.50;81.20
67147;DHT22;54061;52.036;5.558;2023-04-25T07:19:57;13.50;81.20
67147;DHT22;54061;52.036;5.558;2023-04-25T07:22:22;13.50;81.20
67147;DHT22;54061;52.036;5.558;2023-04-25T07:24:48;13.50;81.10
67147;DHT22;54061;52.036;5.558;2023-04-25T07:27:13;13.50;81.20
67147;DHT22;54061;52.036;5.558;2023-04-25T07:29:39;13.50;81.10
67147;DHT22;54061;52.036;5.558;2023-04-25T07:32:05;13.50;81.10
67147;DHT22;54061;52.036;5.558;2023-04-25T07:34:30;13.50;81.10
67147;DHT22;54061;52.036;5.558;2023-04-25T07:36:57;13.50;81.10
67147;DHT22;54061;52.036;5.558;2023-04-25T07:39:22;13.50;81.10
67147;DHT22;54061;52.036;5.558;2023-04-25T07:41:48;13.50;81.10
67147;DHT22;54061;52.036;5.558;2023-04-25T07:44:14;13.50;81.10
67147;DHT22;54061;52.036;5.558;2023-04-25T07:46:40;13.50;81.00
67147;DHT22;54061;52.036;5.558;2023-04-25T07:49:05;13.50;81.00
67147;DHT22;54061;52.036;5.558;2023-04-25T07:51:31;13.60;81.10
67147;DHT22;54061;52.036;5.558;2023-04-25T07:53:56;13.60;81.00
67147;DHT22;54061;52.036;5.558;2023-04-25T07:56:22;13.60;81.00
67147;DHT22;54061;52.036;5.558;2023-04-25T07:58:47;13.60;81.00
67147;DHT22;54061;52.036;5.558;2023-04-25T08:01:13;13.60;81.10
67147;DHT22;54061;52.036;5.558;2023-04-25T08:03:38;13.60;81.00
67147;DHT22;54061;52.036;5.558;2023-04-25T08:06:04;13.60;81.00
67147;DHT22;54061;52.036;5.558;2023-04-25T08:08:30;13.60;81.00
67147;DHT22;54061;52.036;5.558;2023-04-25T08:10:55;13.60;81.00
67147;DHT22;54061;52.036;5.558;2023-04-25T08:13:21;13.60;81.00
67147;DHT22;54061;52.036;5.558;2023-04-25T08:15:46;13.60;81.00
67147;DHT22;54061;52.036;5.558;2023-04-25T08:18:12;13.60;81.00
67147;DHT22;54061;52.036;5.558;2023-04-25T08:20:38;13.70;81.00
67147;DHT22;54061;52.036;5.558;2023-04-25T08:23:03;13.70;81.00
67147;DHT22;54061;52.036;5.558;2023-04-25T08:25:29;13.70;81.00
67147;DHT22;54061;52.036;5.558;2023-04-25T08:27:54;13.70;81.00
67147;DHT22;54061;52.036;5.558;2023-04-25T08:30:21;13.70;80.90
67147;DHT22;54061;52.036;5.558;2023-04-25T08:32:46;13.70;80.90
67147;DHT22;54061;52.036;5.558;2023-04-25T08:35:12;13.70;80.90
67147;DHT22;54061;52.036;5.558;2023-04-25T08:37:37;13.70;80.90
67147;DHT22;54061;52.036;5.558;2023-04-25T08:40:04;13.70;80.90
67147;DHT22;54061;52.036;5.558;2023-04-25T08:42:33;13.70;81.50
67147;DHT22;54061;52.036;5.558;2023-04-25T08:45:01;13.80;80.90
67147;DHT22;54061;52.036;5.558;2023-04-25T08:47:27;13.80;80.90
67147;DHT22;54061;52.036;5.558;2023-04-25T08:49:54;13.80;80.90
67147;DHT22;54061;52.036;5.558;2023-04-25T08:52:23;13.80;80.90
67147;DHT22;54061;52.036;5.558;2023-04-25T08:54:51;13.80;80.80
67147;DHT22;54061;52.036;5.558;2023-04-25T08:57:18;13.80;80.80
67147;DHT22;54061;52.036;5.558;2023-04-25T08:59:44;13.80;80.80
67147;DHT22;54061;52.036;5.558;2023-04-25T09:02:12;13.80;80.90
67147;DHT22;54061;52.036;5.558;2023-04-25T09:04:43;13.80;80.80
67147;DHT22;54061;52.036;5.558;2023-04-25T09:07:09;13.90;80.90
67147;DHT22;54061;52.036;5.558;2023-04-25T09:09:34;13.80;80.80
67147;DHT22;54061;52.036;5.558;2023-04-25T09:12:01;13.90;80.80
67147;DHT22;54061;52.036;5.558;2023-04-25T09:14:27;13.90;80.80
67147;DHT22;54061;52.036;5.558;2023-04-25T09:19:32;13.90;80.70
67147;DHT22;54061;52.036;5.558;2023-04-25T09:22:04;13.90;80.60
67147;DHT22;54061;52.036;5.558;2023-04-25T09:24:44;13.90;80.80
67147;DHT22;54061;52.036;5.558;2023-04-25T09:27:12;13.90;80.50
67147;DHT22;54061;52.036;5.558;2023-04-25T09:29:40;14.00;80.70
67147;DHT22;54061;52.036;5.558;2023-04-25T09:34:46;14.00;80.60
67147;DHT22;54061;52.036;5.558;2023-04-25T09:37:26;14.00;80.70
67147;DHT22;54061;52.036;5.558;2023-04-25T09:40:00;14.00;80.70
67147;DHT22;54061;52.036;5.558;2023-04-25T09:42:29;14.00;81.30
67147;DHT22;54061;52.036;5.558;2023-04-25T09:44:57;14.00;80.70
67147;DHT22;54061;52.036;5.558;2023-04-25T09:47:24;14.10;80.80
67147;DHT22;54061;52.036;5.558;2023-04-25T09:49:51;14.10;80.70
67147;DHT22;54061;52.036;5.558;2023-04-25T09:52:21;14.10;80.80
67147;DHT22;54061;52.036;5.558;2023-04-25T09:54:48;14.10;80.70
67147;DHT22;54061;52.036;5.558;2023-04-25T09:57:25;14.10;80.80
67147;DHT22;54061;52.036;5.558;2023-04-25T09:59:52;14.10;80.60
67147;DHT22;54061;52.036;5.558;2023-04-25T10:02:20;14.20;80.80
67147;DHT22;54061;52.036;5.558;2023-04-25T10:04:51;14.10;81.50
67147;DHT22;54061;52.036;5.558;2023-04-25T10:07:18;14.20;80.90
67147;DHT22;54061;52.036;5.558;2023-04-25T10:09:47;14.20;80.90
67147;DHT22;54061;52.036;5.558;2023-04-25T10:12:13;14.20;80.80
67147;DHT22;54061;52.036;5.558;2023-04-25T10:14:39;14.20;80.80
67147;DHT22;54061;52.036;5.558;2023-04-25T10:17:05;14.20;80.80
67147;DHT22;54061;52.036;5.558;2023-04-25T10:19:32;14.20;80.80
67147;DHT22;54061;52.036;5.558;2023-04-25T10:22:17;14.20;80.70
67147;DHT22;54061;52.036;5.558;2023-04-25T10:24:44;14.20;80.30
67147;DHT22;54061;52.036;5.558;2023-04-25T10:27:12;14.20;80.80
67147;DHT22;54061;52.036;5.558;2023-04-25T10:29:37;14.20;80.70
67147;DHT22;54061;52.036;5.558;2023-04-25T10:32:03;14.20;80.70
67147;DHT22;54061;52.036;5.558;2023-04-25T10:34:42;14.20;80.70
67147;DHT22;54061;52.036;5.558;2023-04-25T10:37:09;14.30;80.40
67147;DHT22;54061;52.036;5.558;2023-04-25T10:39:41;14.30;80.70
67147;DHT22;54061;52.036;5.558;2023-04-25T10:42:07;14.30;80.70
67147;DHT22;54061;52.036;5.558;2023-04-25T10:44:34;14.30;80.70
67147;DHT22;54061;52.036;5.558;2023-04-25T10:47:00;14.30;80.70
67147;DHT22;54061;52.036;5.558;2023-04-25T10:49:31;14.30;80.70
67147;DHT22;54061;52.036;5.558;2023-04-25T10:54:53;14.30;80.10
67147;DHT22;54061;52.036;5.558;2023-04-25T11:02:45;14.30;80.60
67147;DHT22;54061;52.036;5.558;2023-04-25T11:05:26;14.40;80.60
67147;DHT22;54061;52.036;5.558;2023-04-25T11:07:54;14.30;80.30
67147;DHT22;54061;52.036;5.558;2023-04-25T11:10:29;14.30;80.60
67147;DHT22;54061;52.036;5.558;2023-04-25T11:12:55;14.40;80.70
67147;DHT22;54061;52.036;5.558;2023-04-25T11:15:21;14.40;80.60
67147;DHT22;54061;52.036;5.558;2023-04-25T11:17:46;14.40;80.50
67147;DHT22;54061;52.036;5.558;2023-04-25T11:20:13;14.40;80.40
67147;DHT22;54061;52.036;5.558;2023-04-25T11:22:39;14.40;80.40
67147;DHT22;54061;52.036;5.558;2023-04-25T11:25:09;14.40;80.40
67147;DHT22;54061;52.036;5.558;2023-04-25T11:27:50;14.40;80.40
67147;DHT22;54061;52.036;5.558;2023-04-25T11:30:19;14.40;80.30
67147;DHT22;54061;52.036;5.558;2023-04-25T11:32:45;14.40;80.30
67147;DHT22;54061;52.036;5.558;2023-04-25T11:35:11;14.50;80.40
67147;DHT22;54061;52.036;5.558;2023-04-25T11:37:40;14.50;80.40
67147;DHT22;54061;52.036;5.558;2023-04-25T11:40:07;14.50;80.30
67147;DHT22;54061;52.036;5.558;2023-04-25T11:42:34;14.40;80.30
67147;DHT22;54061;52.036;5.558;2023-04-25T11:45:00;14.50;80.40
67147;DHT22;54061;52.036;5.558;2023-04-25T11:47:32;14.50;80.30
67147;DHT22;54061;52.036;5.558;2023-04-25T11:50:06;14.50;80.30
67147;DHT22;54061;52.036;5.558;2023-04-25T11:52:46;14.50;80.30
67147;DHT22;54061;52.036;5.558;2023-04-25T11:55:17;14.50;80.00
67147;DHT22;54061;52.036;5.558;2023-04-25T11:57:44;14.50;80.30
67147;DHT22;54061;52.036;5.558;2023-04-25T12:00:19;14.50;80.30
67147;DHT22;54061;52.036;5.558;2023-04-25T12:02:50;14.50;80.30
67147;DHT22;54061;52.036;5.558;2023-04-25T12:05:16;14.50;80.30
67147;DHT22;54061;52.036;5.558;2023-04-25T12:07:42;14.50;80.20
67147;DHT22;54061;52.036;5.558;2023-04-25T12:10:10;14.50;80.20
67147;DHT22;54061;52.036;5.558;2023-04-25T12:12:37;14.50;80.20
67147;DHT22;54061;52.036;5.558;2023-04-25T12:15:16;14.50;80.20
67147;DHT22;54061;52.036;5.558;2023-04-25T12:17:48;14.50;79.80
67147;DHT22;54061;52.036;5.558;2023-04-25T12:20:19;14.50;80.20
67147;DHT22;54061;52.036;5.558;2023-04-25T12:22:47;14.50;80.10
67147;DHT22;54061;52.036;5.558;2023-04-25T12:25:13;14.50;80.20
67147;DHT22;54061;52.036;5.558;2023-04-25T12:27:39;14.50;80.10
67147;DHT22;54061;52.036;5.558;2023-04-25T12:30:08;14.50;80.10
67147;DHT22;54061;52.036;5.558;2023-04-25T12:32:33;14.50;80.10
67147;DHT22;54061;52.036;5.558;2023-04-25T12:34:59;14.50;80.10
67147;DHT22;54061;52.036;5.558;2023-04-25T12:37:25;14.60;80.20
67147;DHT22;54061;52.036;5.558;2023-04-25T12:39:50;14.50;80.10
67147;DHT22;54061;52.036;5.558;2023-04-25T12:42:16;14.60;80.10
67147;DHT22;54061;52.036;5.558;2023-04-25T12:44:42;14.50;80.10
67147;DHT22;54061;52.036;5.558;2023-04-25T12:47:07;14.60;80.10
67147;DHT22;54061;52.036;5.558;2023-04-25T12:49:33;14.60;80.10
67147;DHT22;54061;52.036;5.558;2023-04-25T12:51:58;14.60;80.10
67147;DHT22;54061;52.036;5.558;2023-04-25T12:54:24;14.60;80.10
67147;DHT22;54061;52.036;5.558;2023-04-25T12:56:50;14.60;80.10
67147;DHT22;54061;52.036;5.558;2023-04-25T12:59:16;14.60;80.10
67147;DHT22;54061;52.036;5.558;2023-04-25T13:01:42;14.60;80.20
67147;DHT22;54061;52.036;5.558;2023-04-25T13:04:08;14.60;80.10
67147;DHT22;54061;52.036;5.558;2023-04-25T13:06:33;14.60;80.10
67147;DHT22;54061;52.036;5.558;2023-04-25T13:08:59;14.60;80.10
67147;DHT22;54061;52.036;5.558;2023-04-25T13:11:24;14.60;80.10
67147;DHT22;54061;52.036;5.558;2023-04-25T13:13:50;14.60;80.10
67147;DHT22;54061;52.036;5.558;2023-04-25T13:16:15;14.60;80.10
67147;DHT22;54061;52.036;5.558;2023-04-25T13:18:41;14.70;80.20
67147;DHT22;54061;52.036;5.558;2023-04-25T13:21:07;14.70;80.10
67147;DHT22;54061;52.036;5.558;2023-04-25T13:23:34;14.70;80.10
67147;DHT22;54061;52.036;5.558;2023-04-25T13:25:59;14.70;80.10
67147;DHT22;54061;52.036;5.558;2023-04-25T13:28:27;14.70;80.10
67147;DHT22;54061;52.036;5.558;2023-04-25T13:30:53;14.60;80.00
67147;DHT22;54061;52.036;5.558;2023-04-25T13:33:19;14.70;80.00
67147;DHT22;54061;52.036;5.558;2023-04-25T13:35:46;14.70;80.00
67147;DHT22;54061;52.036;5.558;2023-04-25T13:38:13;14.70;80.00
67147;DHT22;54061;52.036;5.558;2023-04-25T13:40:38;14.70;80.00
67147;DHT22;54061;52.036;5.558;2023-04-25T13:43:04;14.70;80.00
67147;DHT22;54061;52.036;5.558;2023-04-25T13:45:31;14.70;80.00
67147;DHT22;54061;52.036;5.558;2023-04-25T13:47:57;14.70;80.00
67147;DHT22;54061;52.036;5.558;2023-04-25T13:50:23;14.70;79.90
67147;DHT22;54061;52.036;5.558;2023-04-25T13:52:48;14.70;80.00
67147;DHT22;54061;52.036;5.558;2023-04-25T13:55:14;14.70;79.90
67147;DHT22;54061;52.036;5.558;2023-04-25T13:57:39;14.70;79.90
67147;DHT22;54061;52.036;5.558;2023-04-25T14:00:05;14.70;79.90
67147;DHT22;54061;52.036;5.558;2023-04-25T14:02:35;14.70;79.90
67147;DHT22;54061;52.036;5.558;2023-04-25T14:05:01;14.70;79.90
67147;DHT22;54061;52.036;5.558;2023-04-25T14:07:27;14.70;79.90
67147;DHT22;54061;52.036;5.558;2023-04-25T14:09:53;14.70;79.90
67147;DHT22;54061;52.036;5.558;2023-04-25T14:12:18;14.70;79.90
67147;DHT22;54061;52.036;5.558;2023-04-25T14:14:44;14.80;79.90
67147;DHT22;54061;52.036;5.558;2023-04-25T14:17:10;14.70;79.80
67147;DHT22;54061;52.036;5.558;2023-04-25T14:19:36;14.70;79.80
67147;DHT22;54061;52.036;5.558;2023-04-25T14:22:03;14.70;79.80
67147;DHT22;54061;52.036;5.558;2023-04-25T14:24:29;14.70;79.80
67147;DHT22;54061;52.036;5.558;2023-04-25T14:26:54;14.70;79.90
67147;DHT22;54061;52.036;5.558;2023-04-25T14:29:20;14.70;79.80
67147;DHT22;54061;52.036;5.558;2023-04-25T14:31:46;14.70;79.80
67147;DHT22;54061;52.036;5.558;2023-04-25T14:34:12;14.70;79.80
67147;DHT22;54061;52.036;5.558;2023-04-25T14:36:37;14.70;79.70
67147;DHT22;54061;52.036;5.558;2023-04-25T14:39:03;14.70;79.70
67147;DHT22;54061;52.036;5.558;2023-04-25T14:41:30;14.70;79.70
67147;DHT22;54061;52.036;5.558;2023-04-25T14:43:55;14.70;79.70
67147;DHT22;54061;52.036;5.558;2023-04-25T14:46:22;14.70;79.70
67147;DHT22;54061;52.036;5.558;2023-04-25T14:48:48;14.70;79.70
67147;DHT22;54061;52.036;5.558;2023-04-25T14:51:14;14.70;79.70
67147;DHT22;54061;52.036;5.558;2023-04-25T14:53:40;14.70;79.70
67147;DHT22;54061;52.036;5.558;2023-04-25T14:56:06;14.70;79.70
67147;DHT22;54061;52.036;5.558;2023-04-25T14:58:32;14.70;79.60
67147;DHT22;54061;52.036;5.558;2023-04-25T15:00:59;14.70;79.70
67147;DHT22;54061;52.036;5.558;2023-04-25T15:03:25;14.70;79.60
67147;DHT22;54061;52.036;5.558;2023-04-25T15:05:50;14.70;79.60
67147;DHT22;54061;52.036;5.558;2023-04-25T15:08:16;14.70;79.60
67147;DHT22;54061;52.036;5.558;2023-04-25T15:10:41;14.70;79.60
67147;DHT22;54061;52.036;5.558;2023-04-25T15:13:07;14.70;79.50
67147;DHT22;54061;52.036;5.558;2023-04-25T15:15:33;14.70;79.50
67147;DHT22;54061;52.036;5.558;2023-04-25T15:17:58;14.70;79.50
67147;DHT22;54061;52.036;5.558;2023-04-25T15:20:24;14.70;79.50
67147;DHT22;54061;52.036;5.558;2023-04-25T15:22:50;14.70;79.50
67147;DHT22;54061;52.036;5.558;2023-04-25T15:25:16;14.70;79.50
67147;DHT22;54061;52.036;5.558;2023-04-25T15:27:45;14.60;79.30
67147;DHT22;54061;52.036;5.558;2023-04-25T15:30:14;14.70;79.40
67147;DHT22;54061;52.036;5.558;2023-04-25T15:32:41;14.70;79.30
67147;DHT22;54061;52.036;5.558;2023-04-25T15:35:07;14.70;79.30
67147;DHT22;54061;52.036;5.558;2023-04-25T15:37:34;14.70;79.30
67147;DHT22;54061;52.036;5.558;2023-04-25T15:40:03;14.70;79.30